Time;durP1;ratioP1;P1;durP2;ratioP2;P2;SDS_P1;SDS_P2;PMS_P1;PMS_P2;Temp;Humidity;BMP_temperature;BMP_pressure;BME280_temperature;BME280_humidity;BME280_pressure;Samples;Min_cycle;Max_cycle;Signal;HPM_P1;HPM_P2
2022/12/16 00:01:19;;;;;;;56.08;26.73;;;;;;;1.29;100.00;100243.02;1649412;85;21557;-64
2022/12/16 00:03:51;;;;;;;65.52;34.78;;;;;;;1.14;100.00;100245.56;1667364;86;21117;-64
2022/12/16 00:06:18;;;;;;;82.53;39.53;;;;;;;1.05;100.00;100250.28;1667459;86;21101;-63
2022/12/16 00:08:45;;;;;;;46.68;23.73;;;;;;;1.05;100.00;100252.44;1670464;85;21780;-64
2022/12/16 00:11:12;;;;;;;79.77;40.12;;;;;;;1.03;100.00;100262.38;1685719;85;21061;-63
2022/12/16 00:13:39;;;;;;;90.87;40.75;;;;;;;1.09;100.00;100262.84;1685826;85;21093;-65
2022/12/16 00:16:11;;;;;;;74.50;35.28;;;;;;;1.02;100.00;100267.14;1686200;85;21084;-65
2022/12/16 00:18:38;;;;;;;83.75;41.00;;;;;;;0.97;100.00;100266.26;1685898;85;21053;-63
2022/12/16 00:21:05;;;;;;;73.37;34.27;;;;;;;0.83;100.00;100266.20;1685706;85;21323;-64
2022/12/16 00:23:32;;;;;;;66.87;35.27;;;;;;;0.81;100.00;100267.91;1685629;85;21073;-63
2022/12/16 00:25:59;;;;;;;73.37;37.65;;;;;;;0.95;100.00;100270.57;1685809;85;21073;-63
2022/12/16 00:28:25;;;;;;;56.95;26.93;;;;;;;0.88;100.00;100268.81;1685724;84;21190;-63
2022/12/16 00:30:53;;;;;;;70.83;33.95;;;;;;;0.88;100.00;100269.67;1685906;85;21112;-63
2022/12/16 00:33:21;;;;;;;70.35;33.18;;;;;;;0.82;100.00;100269.63;1685814;85;21169;-62
2022/12/16 00:35:47;;;;;;;66.75;33.28;;;;;;;1.00;100.00;100264.52;1685613;85;21088;-63
2022/12/16 00:38:14;;;;;;;91.20;41.50;;;;;;;1.14;100.00;100261.13;1685763;85;21080;-64
2022/12/16 00:40:41;;;;;;;55.65;27.93;;;;;;;1.28;100.00;100251.65;1685697;85;21069;-64
2022/12/16 00:43:08;;;;;;;86.92;42.03;;;;;;;0.94;100.00;100260.60;1685846;85;21379;-64
2022/12/16 00:45:35;;;;;;;86.12;39.75;;;;;;;0.77;100.00;100266.16;1685751;85;21152;-65
2022/12/16 00:48:01;;;;;;;76.80;34.90;;;;;;;0.76;100.00;100262.70;1686007;85;21100;-63
2022/12/16 00:50:28;;;;;;;81.45;37.05;;;;;;;0.78;100.00;100262.69;1685776;85;21029;-63
2022/12/16 00:52:54;;;;;;;81.00;37.45;;;;;;;0.95;100.00;100266.68;1686139;85;21061;-64
2022/12/16 00:55:21;;;;;;;111.40;44.98;;;;;;;0.72;100.00;100267.43;1685864;85;21589;-64
2022/12/16 00:57:48;;;;;;;102.82;41.58;;;;;;;0.71;100.00;100275.19;1685961;85;21144;-64
2022/12/16 01:00:17;;;;;;;102.55;41.90;;;;;;;0.82;100.00;100273.09;1682794;85;21017;-64
2022/12/16 01:02:46;;;;;;;115.03;45.08;;;;;;;0.83;100.00;100271.38;1660937;86;21124;-64
2022/12/16 01:05:15;;;;;;;66.17;27.90;;;;;;;0.75;100.00;100270.47;1661486;86;21124;-64
2022/12/16 01:07:43;;;;;;;79.67;37.15;;;;;;;0.83;100.00;100273.98;1662020;86;21029;-64
2022/12/16 01:10:10;;;;;;;105.47;45.25;;;;;;;0.89;100.00;100268.80;1661736;86;21258;-65
2022/12/16 01:12:37;;;;;;;120.10;48.65;;;;;;;0.83;100.00;100268.79;1661793;86;21109;-64
2022/12/16 01:15:05;;;;;;;189.67;47.50;;;;;;;0.98;100.00;100266.24;1661531;86;21152;-64
2022/12/16 01:17:34;;;;;;;124.12;40.03;;;;;;;0.95;100.00;100264.95;1661744;86;21072;-63
2022/12/16 01:20:01;;;;;;;73.65;33.63;;;;;;;0.86;100.00;100264.91;1661622;86;21088;-64
2022/12/16 01:22:30;;;;;;;85.32;38.55;;;;;;;0.94;100.00;100267.09;1661521;86;21996;-63
2022/12/16 01:24:58;;;;;;;90.97;38.25;;;;;;;0.74;100.00;100271.34;1661594;86;21632;-64
2022/12/16 01:27:27;;;;;;;87.97;41.10;;;;;;;0.72;100.00;100276.50;1661680;85;21065;-64
2022/12/16 01:29:54;;;;;;;90.17;41.05;;;;;;;0.78;100.00;100284.73;1661442;86;21564;-63
2022/12/16 01:32:22;;;;;;;91.08;42.70;;;;;;;0.75;100.00;100297.69;1661609;86;21096;-63
2022/12/16 01:34:53;;;;;;;111.35;44.60;;;;;;;0.73;100.00;100301.99;1661333;86;22087;-64
2022/12/16 01:37:20;;;;;;;70.67;35.83;;;;;;;0.74;100.00;100286.45;1661528;86;21084;-64
2022/12/16 01:39:46;;;;;;;87.12;38.80;;;;;;;0.45;100.00;100300.52;1661429;86;21586;-63
2022/12/16 01:42:16;;;;;;;90.05;41.15;;;;;;;0.61;100.00;100304.94;1661332;86;21068;-64
2022/12/16 01:44:44;;;;;;;75.70;36.88;;;;;;;0.63;100.00;100308.41;1661654;86;21588;-64
2022/12/16 01:47:17;;;;;;;86.60;40.85;;;;;;;0.84;100.00;100312.85;1661404;86;21166;-64
2022/12/16 01:50:07;;;;;;;89.20;41.00;;;;;;;0.68;100.00;100308.88;1661286;86;21116;-64
2022/12/16 01:52:39;;;;;;;62.17;30.10;;;;;;;0.87;100.00;100319.78;1660717;86;21112;-62
2022/12/16 01:55:11;;;;;;;77.95;39.78;;;;;;;0.79;100.00;100313.27;1661430;86;21127;-62
2022/12/16 01:57:41;;;;;;;91.53;41.70;;;;;;;0.78;100.00;100327.50;1661329;86;21077;-63
2022/12/16 02:00:10;;;;;;;89.47;39.23;;;;;;;0.96;100.00;100324.16;1659360;86;21292;-63
2022/12/16 02:02:43;;;;;;;111.12;45.92;;;;;;;1.11;100.00;100329.86;1638651;87;21148;-63
2022/12/16 02:05:19;;;;;;;105.95;46.02;;;;;;;0.96;100.00;100325.45;1641699;87;21081;-62
